sensor_id;sensor_type;location;lat;lon;timestamp;temperature;humidity
49717;DHT22;35609;53.166;7.610;2023-02-18T00:01:24;6.00;99.90
49717;DHT22;35609;53.166;7.610;2023-02-18T00:03:50;6.00;99.90
49717;DHT22;35609;53.166;7.610;2023-02-18T00:08:44;6.10;99.90
49717;DHT22;35609;53.166;7.610;2023-02-18T00:11:10;6.10;99.90
49717;DHT22;35609;53.166;7.610;2023-02-18T00:13:36;6.10;99.90
49717;DHT22;35609;53.166;7.610;2023-02-18T00:16:04;6.10;99.90
49717;DHT22;35609;53.166;7.610;2023-02-18T00:18:30;6.20;99.90
49717;DHT22;35609;53.166;7.610;2023-02-18T00:20:56;6.20;99.90
49717;DHT22;35609;53.166;7.610;2023-02-18T00:23:22;6.20;99.90
49717;DHT22;35609;53.166;7.610;2023-02-18T00:25:48;6.30;99.90
49717;DHT22;35609;53.166;7.610;2023-02-18T00:28:13;6.30;99.90
49717;DHT22;35609;53.166;7.610;2023-02-18T00:30:40;6.40;99.90
49717;DHT22;35609;53.166;7.610;2023-02-18T00:33:06;6.40;99.90
49717;DHT22;35609;53.166;7.610;2023-02-18T00:35:31;6.50;99.90
49717;DHT22;35609;53.166;7.610;2023-02-18T00:37:57;6.40;99.90
49717;DHT22;35609;53.166;7.610;2023-02-18T00:40:23;6.50;99.90
49717;DHT22;35609;53.166;7.610;2023-02-18T00:42:48;6.50;99.90
49717;DHT22;35609;53.166;7.610;2023-02-18T00:45:14;6.50;99.90
49717;DHT22;35609;53.166;7.610;2023-02-18T00:47:40;6.50;99.90
49717;DHT22;35609;53.166;7.610;2023-02-18T00:50:06;6.50;99.90
49717;DHT22;35609;53.166;7.610;2023-02-18T00:52:32;6.50;99.90
49717;DHT22;35609;53.166;7.610;2023-02-18T00:54:58;6.50;99.90
49717;DHT22;35609;53.166;7.610;2023-02-18T00:57:23;6.60;99.90
49717;DHT22;35609;53.166;7.610;2023-02-18T00:59:49;6.60;99.90
49717;DHT22;35609;53.166;7.610;2023-02-18T01:02:14;6.50;99.90
49717;DHT22;35609;53.166;7.610;2023-02-18T01:04:40;6.50;99.90
49717;DHT22;35609;53.166;7.610;2023-02-18T01:07:06;6.50;99.90
49717;DHT22;35609;53.166;7.610;2023-02-18T01:09:31;6.50;99.90
49717;DHT22;35609;53.166;7.610;2023-02-18T01:11:57;6.60;99.90
49717;DHT22;35609;53.166;7.610;2023-02-18T01:14:22;6.50;99.90
49717;DHT22;35609;53.166;7.610;2023-02-18T01:16:48;6.50;99.90
49717;DHT22;35609;53.166;7.610;2023-02-18T01:19:14;6.50;99.90
49717;DHT22;35609;53.166;7.610;2023-02-18T01:21:39;6.50;99.90
49717;DHT22;35609;53.166;7.610;2023-02-18T01:24:05;6.40;99.90
49717;DHT22;35609;53.166;7.610;2023-02-18T01:26:31;6.30;99.90
49717;DHT22;35609;53.166;7.610;2023-02-18T01:28:57;6.30;99.90
49717;DHT22;35609;53.166;7.610;2023-02-18T01:31:22;6.20;99.90
49717;DHT22;35609;53.166;7.610;2023-02-18T01:33:48;6.20;99.90
49717;DHT22;35609;53.166;7.610;2023-02-18T01:36:14;6.10;99.90
49717;DHT22;35609;53.166;7.610;2023-02-18T01:38:39;6.10;99.90
49717;DHT22;35609;53.166;7.610;2023-02-18T01:41:05;6.00;99.90
49717;DHT22;35609;53.166;7.610;2023-02-18T01:43:32;6.10;99.90
49717;DHT22;35609;53.166;7.610;2023-02-18T01:46:04;6.00;99.90
49717;DHT22;35609;53.166;7.610;2023-02-18T01:48:41;5.90;99.90
49717;DHT22;35609;53.166;7.610;2023-02-18T01:51:21;5.90;99.90
49717;DHT22;35609;53.166;7.610;2023-02-18T01:53:53;5.90;99.90
49717;DHT22;35609;53.166;7.610;2023-02-18T01:59:06;6.00;99.90
49717;DHT22;35609;53.166;7.610;2023-02-18T02:01:34;6.00;99.90
49717;DHT22;35609;53.166;7.610;2023-02-18T02:04:00;5.90;99.90
49717;DHT22;35609;53.166;7.610;2023-02-18T02:06:26;6.00;99.90
49717;DHT22;35609;53.166;7.610;2023-02-18T02:08:57;6.00;99.90
49717;DHT22;35609;53.166;7.610;2023-02-18T02:14:15;6.20;99.90
49717;DHT22;35609;53.166;7.610;2023-02-18T02:16:51;6.20;99.90
49717;DHT22;35609;53.166;7.610;2023-02-18T02:27:34;6.30;99.90
49717;DHT22;35609;53.166;7.610;2023-02-18T02:35:39;6.40;99.90
49717;DHT22;35609;53.166;7.610;2023-02-18T02:38:21;6.50;99.90
49717;DHT22;35609;53.166;7.610;2023-02-18T02:41:04;6.50;99.90
49717;DHT22;35609;53.166;7.610;2023-02-18T02:43:59;6.40;99.90
49717;DHT22;35609;53.166;7.610;2023-02-18T02:46:35;6.40;99.90
49717;DHT22;35609;53.166;7.610;2023-02-18T02:51:59;6.60;99.90
49717;DHT22;35609;53.166;7.610;2023-02-18T02:54:28;6.50;99.90
49717;DHT22;35609;53.166;7.610;2023-02-18T02:57:36;6.50;99.90
49717;DHT22;35609;53.166;7.610;2023-02-18T03:00:03;6.60;99.90
49717;DHT22;35609;53.166;7.610;2023-02-18T03:05:38;6.50;99.90
49717;DHT22;35609;53.166;7.610;2023-02-18T03:08:40;6.60;99.90
49717;DHT22;35609;53.166;7.610;2023-02-18T03:11:11;6.60;99.90
49717;DHT22;35609;53.166;7.610;2023-02-18T03:16:27;6.60;99.90
49717;DHT22;35609;53.166;7.610;2023-02-18T03:19:15;6.60;99.90
49717;DHT22;35609;53.166;7.610;2023-02-18T03:21:47;6.60;99.90
49717;DHT22;35609;53.166;7.610;2023-02-18T03:24:28;6.60;99.90
49717;DHT22;35609;53.166;7.610;2023-02-18T03:26:58;6.60;99.90
49717;DHT22;35609;53.166;7.610;2023-02-18T03:29:25;6.50;99.90
49717;DHT22;35609;53.166;7.610;2023-02-18T03:31:58;6.50;99.90
49717;DHT22;35609;53.166;7.610;2023-02-18T03:34:33;6.70;99.90
49717;DHT22;35609;53.166;7.610;2023-02-18T03:37:00;6.60;99.90
49717;DHT22;35609;53.166;7.610;2023-02-18T03:39:28;6.70;99.90
49717;DHT22;35609;53.166;7.610;2023-02-18T03:41:54;6.70;99.90
49717;DHT22;35609;53.166;7.610;2023-02-18T03:44:20;6.60;99.90
49717;DHT22;35609;53.166;7.610;2023-02-18T03:46:46;6.70;99.90
49717;DHT22;35609;53.166;7.610;2023-02-18T03:49:13;6.70;99.90
49717;DHT22;35609;53.166;7.610;2023-02-18T03:51:40;6.70;99.90
49717;DHT22;35609;53.166;7.610;2023-02-18T03:54:06;6.80;99.90
49717;DHT22;35609;53.166;7.610;2023-02-18T03:56:33;6.70;99.90
49717;DHT22;35609;53.166;7.610;2023-02-18T03:58:58;6.70;99.90
49717;DHT22;35609;53.166;7.610;2023-02-18T04:01:24;6.80;99.90
49717;DHT22;35609;53.166;7.610;2023-02-18T04:03:49;6.80;99.90
49717;DHT22;35609;53.166;7.610;2023-02-18T04:06:15;6.80;99.90
49717;DHT22;35609;53.166;7.610;2023-02-18T04:08:41;6.70;99.90
49717;DHT22;35609;53.166;7.610;2023-02-18T04:11:07;6.80;99.90
49717;DHT22;35609;53.166;7.610;2023-02-18T04:13:32;6.80;99.90
49717;DHT22;35609;53.166;7.610;2023-02-18T04:15:58;6.90;99.90
49717;DHT22;35609;53.166;7.610;2023-02-18T04:18:24;6.90;99.90
49717;DHT22;35609;53.166;7.610;2023-02-18T04:20:50;6.90;99.90
49717;DHT22;35609;53.166;7.610;2023-02-18T04:23:16;6.90;99.90
49717;DHT22;35609;53.166;7.610;2023-02-18T04:25:42;6.90;99.90
49717;DHT22;35609;53.166;7.610;2023-02-18T04:28:09;6.90;99.90
49717;DHT22;35609;53.166;7.610;2023-02-18T04:30:38;7.00;99.90
49717;DHT22;35609;53.166;7.610;2023-02-18T04:33:03;6.80;99.90
49717;DHT22;35609;53.166;7.610;2023-02-18T04:35:29;6.80;99.90
49717;DHT22;35609;53.166;7.610;2023-02-18T04:37:54;6.80;99.90
49717;DHT22;35609;53.166;7.610;2023-02-18T04:40:20;6.90;99.90
49717;DHT22;35609;53.166;7.610;2023-02-18T04:42:46;6.80;99.90
49717;DHT22;35609;53.166;7.610;2023-02-18T04:45:12;7.00;99.90
49717;DHT22;35609;53.166;7.610;2023-02-18T04:47:37;6.90;99.90
49717;DHT22;35609;53.166;7.610;2023-02-18T04:50:04;7.00;99.90
49717;DHT22;35609;53.166;7.610;2023-02-18T04:52:29;7.00;99.90
49717;DHT22;35609;53.166;7.610;2023-02-18T04:54:55;6.80;99.90
49717;DHT22;35609;53.166;7.610;2023-02-18T04:57:21;6.90;99.90
49717;DHT22;35609;53.166;7.610;2023-02-18T04:59:46;6.90;99.90
49717;DHT22;35609;53.166;7.610;2023-02-18T05:02:12;6.70;99.90
49717;DHT22;35609;53.166;7.610;2023-02-18T05:04:38;6.90;99.90
49717;DHT22;35609;53.166;7.610;2023-02-18T05:07:03;6.80;99.90
49717;DHT22;35609;53.166;7.610;2023-02-18T05:09:29;6.80;99.90
49717;DHT22;35609;53.166;7.610;2023-02-18T05:11:55;6.90;99.90
49717;DHT22;35609;53.166;7.610;2023-02-18T05:14:20;7.00;99.90
49717;DHT22;35609;53.166;7.610;2023-02-18T05:16:46;6.80;99.90
49717;DHT22;35609;53.166;7.610;2023-02-18T05:19:13;6.90;99.90
49717;DHT22;35609;53.166;7.610;2023-02-18T05:21:40;7.00;99.90
49717;DHT22;35609;53.166;7.610;2023-02-18T05:24:05;7.00;99.90
49717;DHT22;35609;53.166;7.610;2023-02-18T05:26:33;6.80;99.90
49717;DHT22;35609;53.166;7.610;2023-02-18T05:28:58;6.80;99.90
49717;DHT22;35609;53.166;7.610;2023-02-18T05:31:24;6.90;99.90
49717;DHT22;35609;53.166;7.610;2023-02-18T05:33:50;6.80;99.90
49717;DHT22;35609;53.166;7.610;2023-02-18T05:36:15;6.80;99.90
49717;DHT22;35609;53.166;7.610;2023-02-18T05:38:41;6.90;99.90
49717;DHT22;35609;53.166;7.610;2023-02-18T05:41:07;6.90;99.90
49717;DHT22;35609;53.166;7.610;2023-02-18T05:43:32;7.00;99.90
49717;DHT22;35609;53.166;7.610;2023-02-18T05:46:21;7.00;99.90
49717;DHT22;35609;53.166;7.610;2023-02-18T05:48:46;6.90;99.90
49717;DHT22;35609;53.166;7.610;2023-02-18T05:51:12;7.00;99.90
49717;DHT22;35609;53.166;7.610;2023-02-18T05:53:38;6.90;99.90
49717;DHT22;35609;53.166;7.610;2023-02-18T05:56:04;7.00;99.90
49717;DHT22;35609;53.166;7.610;2023-02-18T05:58:30;7.10;99.90
49717;DHT22;35609;53.166;7.610;2023-02-18T06:00:55;7.00;99.90
49717;DHT22;35609;53.166;7.610;2023-02-18T06:03:21;7.10;99.90
49717;DHT22;35609;53.166;7.610;2023-02-18T06:05:50;7.20;99.90
49717;DHT22;35609;53.166;7.610;2023-02-18T06:08:16;7.40;99.90
49717;DHT22;35609;53.166;7.610;2023-02-18T06:10:41;7.30;99.90
49717;DHT22;35609;53.166;7.610;2023-02-18T06:13:07;7.30;99.90
49717;DHT22;35609;53.166;7.610;2023-02-18T06:15:33;7.20;99.90
49717;DHT22;35609;53.166;7.610;2023-02-18T06:17:58;7.30;99.90
49717;DHT22;35609;53.166;7.610;2023-02-18T06:20:24;7.20;99.90
49717;DHT22;35609;53.166;7.610;2023-02-18T06:22:50;7.40;99.90
49717;DHT22;35609;53.166;7.610;2023-02-18T06:25:15;7.30;99.90
49717;DHT22;35609;53.166;7.610;2023-02-18T06:27:41;7.50;99.90
49717;DHT22;35609;53.166;7.610;2023-02-18T06:30:07;7.40;99.90
49717;DHT22;35609;53.166;7.610;2023-02-18T06:32:33;7.40;99.90
49717;DHT22;35609;53.166;7.610;2023-02-18T06:34:59;7.50;99.90
49717;DHT22;35609;53.166;7.610;2023-02-18T06:37:25;7.60;99.90
49717;DHT22;35609;53.166;7.610;2023-02-18T06:39:50;7.50;99.90
49717;DHT22;35609;53.166;7.610;2023-02-18T06:42:16;7.60;99.90
49717;DHT22;35609;53.166;7.610;2023-02-18T06:44:42;7.50;99.90
49717;DHT22;35609;53.166;7.610;2023-02-18T06:47:07;7.50;99.90
49717;DHT22;35609;53.166;7.610;2023-02-18T06:49:33;7.50;99.90
49717;DHT22;35609;53.166;7.610;2023-02-18T06:52:01;7.50;99.90
49717;DHT22;35609;53.166;7.610;2023-02-18T06:54:26;7.50;99.90
49717;DHT22;35609;53.166;7.610;2023-02-18T06:56:52;7.60;99.90
49717;DHT22;35609;53.166;7.610;2023-02-18T06:59:18;7.80;99.90
49717;DHT22;35609;53.166;7.610;2023-02-18T07:01:43;7.70;99.90
49717;DHT22;35609;53.166;7.610;2023-02-18T07:04:09;7.90;99.90
49717;DHT22;35609;53.166;7.610;2023-02-18T07:06:35;7.80;99.90
49717;DHT22;35609;53.166;7.610;2023-02-18T07:09:00;7.90;99.90
49717;DHT22;35609;53.166;7.610;2023-02-18T07:11:26;8.00;99.90
49717;DHT22;35609;53.166;7.610;2023-02-18T07:13:52;8.00;99.90
49717;DHT22;35609;53.166;7.610;2023-02-18T07:16:17;8.10;99.90
49717;DHT22;35609;53.166;7.610;2023-02-18T07:18:43;8.10;99.90
49717;DHT22;35609;53.166;7.610;2023-02-18T07:21:10;8.30;99.90
49717;DHT22;35609;53.166;7.610;2023-02-18T07:23:35;8.30;99.90
49717;DHT22;35609;53.166;7.610;2023-02-18T07:26:19;8.40;99.90
49717;DHT22;35609;53.166;7.610;2023-02-18T07:28:45;8.40;99.90
49717;DHT22;35609;53.166;7.610;2023-02-18T07:31:10;8.40;99.90
49717;DHT22;35609;53.166;7.610;2023-02-18T07:33:36;8.40;99.90
49717;DHT22;35609;53.166;7.610;2023-02-18T07:36:02;8.60;99.90
49717;DHT22;35609;53.166;7.610;2023-02-18T07:38:29;8.60;99.90
49717;DHT22;35609;53.166;7.610;2023-02-18T07:40:56;8.60;99.90
49717;DHT22;35609;53.166;7.610;2023-02-18T07:43:22;8.70;99.90
49717;DHT22;35609;53.166;7.610;2023-02-18T07:45:48;8.70;99.90
49717;DHT22;35609;53.166;7.610;2023-02-18T07:48:14;8.70;99.90
49717;DHT22;35609;53.166;7.610;2023-02-18T07:50:41;8.70;99.90
49717;DHT22;35609;53.166;7.610;2023-02-18T07:53:09;8.70;99.90
49717;DHT22;35609;53.166;7.610;2023-02-18T07:55:36;8.90;99.90
49717;DHT22;35609;53.166;7.610;2023-02-18T08:00:47;8.70;99.90
49717;DHT22;35609;53.166;7.610;2023-02-18T08:03:15;8.90;99.90
49717;DHT22;35609;53.166;7.610;2023-02-18T08:05:41;8.80;99.90
49717;DHT22;35609;53.166;7.610;2023-02-18T08:08:08;9.00;99.90
49717;DHT22;35609;53.166;7.610;2023-02-18T08:10:33;9.10;99.90
49717;DHT22;35609;53.166;7.610;2023-02-18T08:12:59;9.00;99.90
49717;DHT22;35609;53.166;7.610;2023-02-18T08:15:25;8.90;99.90
49717;DHT22;35609;53.166;7.610;2023-02-18T08:17:51;9.00;99.90
49717;DHT22;35609;53.166;7.610;2023-02-18T08:20:16;9.10;99.90
49717;DHT22;35609;53.166;7.610;2023-02-18T08:22:42;9.10;99.90
49717;DHT22;35609;53.166;7.610;2023-02-18T08:25:08;9.20;99.90
49717;DHT22;35609;53.166;7.610;2023-02-18T08:27:33;9.30;99.90
49717;DHT22;35609;53.166;7.610;2023-02-18T08:29:59;9.20;99.90
49717;DHT22;35609;53.166;7.610;2023-02-18T08:32:28;9.10;99.90
49717;DHT22;35609;53.166;7.610;2023-02-18T08:34:55;9.30;99.90
49717;DHT22;35609;53.166;7.610;2023-02-18T08:37:20;9.20;99.90
49717;DHT22;35609;53.166;7.610;2023-02-18T08:39:46;9.50;99.90
49717;DHT22;35609;53.166;7.610;2023-02-18T08:42:12;9.40;99.90
49717;DHT22;35609;53.166;7.610;2023-02-18T08:44:37;9.40;99.90
49717;DHT22;35609;53.166;7.610;2023-02-18T08:47:03;9.40;99.90
49717;DHT22;35609;53.166;7.610;2023-02-18T08:49:29;9.40;99.90
49717;DHT22;35609;53.166;7.610;2023-02-18T08:51:55;9.40;99.90
49717;DHT22;35609;53.166;7.610;2023-02-18T08:54:20;9.50;99.90
49717;DHT22;35609;53.166;7.610;2023-02-18T08:56:46;9.40;99.90
49717;DHT22;35609;53.166;7.610;2023-02-18T08:59:11;9.50;99.90
49717;DHT22;35609;53.166;7.610;2023-02-18T09:01:37;9.40;99.90
49717;DHT22;35609;53.166;7.610;2023-02-18T09:04:03;9.50;99.90
49717;DHT22;35609;53.166;7.610;2023-02-18T09:06:29;9.40;99.90
49717;DHT22;35609;53.166;7.610;2023-02-18T09:08:54;9.40;99.90
49717;DHT22;35609;53.166;7.610;2023-02-18T09:11:20;9.30;99.90
49717;DHT22;35609;53.166;7.610;2023-02-18T09:13:46;9.30;99.90
49717;DHT22;35609;53.166;7.610;2023-02-18T09:16:15;9.40;99.90
49717;DHT22;35609;53.166;7.610;2023-02-18T09:18:43;9.20;99.90
49717;DHT22;35609;53.166;7.610;2023-02-18T09:21:11;9.30;99.90
49717;DHT22;35609;53.166;7.610;2023-02-18T09:23:38;9.40;99.90
49717;DHT22;35609;53.166;7.610;2023-02-18T09:26:05;9.20;99.90
49717;DHT22;35609;53.166;7.610;2023-02-18T09:28:32;9.30;99.90
49717;DHT22;35609;53.166;7.610;2023-02-18T09:33:30;9.30;99.90
49717;DHT22;35609;53.166;7.610;2023-02-18T09:35:56;9.40;99.90
49717;DHT22;35609;53.166;7.610;2023-02-18T09:38:22;9.40;99.90
49717;DHT22;35609;53.166;7.610;2023-02-18T09:40:51;9.30;99.90
49717;DHT22;35609;53.166;7.610;2023-02-18T09:43:42;9.40;99.90
49717;DHT22;35609;53.166;7.610;2023-02-18T09:46:19;9.30;99.90
49717;DHT22;35609;53.166;7.610;2023-02-18T09:48:45;9.30;99.90
49717;DHT22;35609;53.166;7.610;2023-02-18T09:51:16;9.50;99.90
49717;DHT22;35609;53.166;7.610;2023-02-18T09:53:43;9.40;99.90
49717;DHT22;35609;53.166;7.610;2023-02-18T09:56:13;9.30;99.90
49717;DHT22;35609;53.166;7.610;2023-02-18T09:58:40;9.30;99.90
49717;DHT22;35609;53.166;7.610;2023-02-18T10:03:59;9.40;99.90
49717;DHT22;35609;53.166;7.610;2023-02-18T10:06:29;9.50;99.90
49717;DHT22;35609;53.166;7.610;2023-02-18T10:09:02;9.40;99.90
49717;DHT22;35609;53.166;7.610;2023-02-18T10:11:37;9.30;99.90
49717;DHT22;35609;53.166;7.610;2023-02-18T10:14:10;9.20;99.90
49717;DHT22;35609;53.166;7.610;2023-02-18T10:16:36;9.30;99.90
49717;DHT22;35609;53.166;7.610;2023-02-18T10:19:19;9.30;99.90
49717;DHT22;35609;53.166;7.610;2023-02-18T10:21:46;9.30;99.90
49717;DHT22;35609;53.166;7.610;2023-02-18T10:24:36;9.30;99.90
49717;DHT22;35609;53.166;7.610;2023-02-18T10:27:05;9.30;99.90
49717;DHT22;35609;53.166;7.610;2023-02-18T10:29:31;9.20;99.90
49717;DHT22;35609;53.166;7.610;2023-02-18T10:32:11;9.50;99.90
49717;DHT22;35609;53.166;7.610;2023-02-18T10:37:26;9.40;99.90
49717;DHT22;35609;53.166;7.610;2023-02-18T10:42:54;9.50;99.90
49717;DHT22;35609;53.166;7.610;2023-02-18T10:50:42;9.40;99.90
49717;DHT22;35609;53.166;7.610;2023-02-18T10:53:33;9.30;99.90
49717;DHT22;35609;53.166;7.610;2023-02-18T10:56:00;9.30;99.90
49717;DHT22;35609;53.166;7.610;2023-02-18T10:58:42;9.40;99.90
49717;DHT22;35609;53.166;7.610;2023-02-18T11:01:19;9.40;99.90
49717;DHT22;35609;53.166;7.610;2023-02-18T11:03:50;9.40;99.90
49717;DHT22;35609;53.166;7.610;2023-02-18T11:06:51;9.30;99.90
49717;DHT22;35609;53.166;7.610;2023-02-18T11:09:48;9.40;99.90
49717;DHT22;35609;53.166;7.610;2023-02-18T11:12:20;9.40;99.90
49717;DHT22;35609;53.166;7.610;2023-02-18T11:14:49;9.50;99.90
49717;DHT22;35609;53.166;7.610;2023-02-18T11:17:25;9.50;99.90
49717;DHT22;35609;53.166;7.610;2023-02-18T11:19:56;9.50;99.90
49717;DHT22;35609;53.166;7.610;2023-02-18T11:22:32;9.40;99.90
49717;DHT22;35609;53.166;7.610;2023-02-18T11:25:00;9.50;99.90
49717;DHT22;35609;53.166;7.610;2023-02-18T11:27:49;9.70;99.90
49717;DHT22;35609;53.166;7.610;2023-02-18T11:36:32;9.70;99.90
49717;DHT22;35609;53.166;7.610;2023-02-18T11:39:03;9.70;99.90
49717;DHT22;35609;53.166;7.610;2023-02-18T11:42:16;9.90;99.90
49717;DHT22;35609;53.166;7.610;2023-02-18T11:44:26;9.70;99.90
49717;DHT22;35609;53.166;7.610;2023-02-18T11:46:59;9.80;99.90
49717;DHT22;35609;53.166;7.610;2023-02-18T11:49:26;9.70;99.90
49717;DHT22;35609;53.166;7.610;2023-02-18T11:51:52;9.80;99.90
49717;DHT22;35609;53.166;7.610;2023-02-18T11:54:28;9.90;99.90
49717;DHT22;35609;53.166;7.610;2023-02-18T11:57:09;10.00;99.90
49717;DHT22;35609;53.166;7.610;2023-02-18T11:59:37;10.00;99.90
49717;DHT22;35609;53.166;7.610;2023-02-18T12:02:29;10.00;99.90
49717;DHT22;35609;53.166;7.610;2023-02-18T12:05:19;10.00;99.90
49717;DHT22;35609;53.166;7.610;2023-02-18T12:07:46;10.00;99.90
49717;DHT22;35609;53.166;7.610;2023-02-18T12:13:02;10.10;99.90
49717;DHT22;35609;53.166;7.610;2023-02-18T12:18:40;10.10;99.90
49717;DHT22;35609;53.166;7.610;2023-02-18T12:21:25;10.30;99.90
49717;DHT22;35609;53.166;7.610;2023-02-18T12:29:41;10.40;99.90
49717;DHT22;35609;53.166;7.610;2023-02-18T12:42:48;10.70;99.90
49717;DHT22;35609;53.166;7.610;2023-02-18T12:56:51;10.70;99.90
49717;DHT22;35609;53.166;7.610;2023-02-18T12:59:43;10.70;99.90
49717;DHT22;35609;53.166;7.610;2023-02-18T13:13:38;10.60;99.90
49717;DHT22;35609;53.166;7.610;2023-02-18T13:16:09;10.70;99.90
49717;DHT22;35609;53.166;7.610;2023-02-18T13:19:28;10.80;99.90
49717;DHT22;35609;53.166;7.610;2023-02-18T13:21:28;10.80;99.90
49717;DHT22;35609;53.166;7.610;2023-02-18T13:24:02;10.70;99.90
49717;DHT22;35609;53.166;7.610;2023-02-18T13:26:31;10.80;99.90
49717;DHT22;35609;53.166;7.610;2023-02-18T13:29:19;10.70;99.90
49717;DHT22;35609;53.166;7.610;2023-02-18T13:32:00;10.80;99.90
49717;DHT22;35609;53.166;7.610;2023-02-18T13:34:33;10.90;99.90
49717;DHT22;35609;53.166;7.610;2023-02-18T13:39:54;10.80;99.90
49717;DHT22;35609;53.166;7.610;2023-02-18T13:42:34;10.80;99.90
49717;DHT22;35609;53.166;7.610;2023-02-18T13:45:02;10.90;99.90
49717;DHT22;35609;53.166;7.610;2023-02-18T13:47:43;10.80;99.90
49717;DHT22;35609;53.166;7.610;2023-02-18T13:53:11;10.80;99.90
49717;DHT22;35609;53.166;7.610;2023-02-18T14:01:14;10.70;99.90
49717;DHT22;35609;53.166;7.610;2023-02-18T14:08:42;10.80;99.90
49717;DHT22;35609;53.166;7.610;2023-02-18T14:13:47;10.70;99.90
49717;DHT22;35609;53.166;7.610;2023-02-18T14:16:14;10.70;99.90
49717;DHT22;35609;53.166;7.610;2023-02-18T14:31:05;10.60;99.90
49717;DHT22;35609;53.166;7.610;2023-02-18T14:33:58;10.60;99.90
49717;DHT22;35609;53.166;7.610;2023-02-18T14:39:05;10.40;99.90
49717;DHT22;35609;53.166;7.610;2023-02-18T14:41:57;10.30;99.90
49717;DHT22;35609;53.166;7.610;2023-02-18T14:44:40;10.30;99.90
49717;DHT22;35609;53.166;7.610;2023-02-18T14:47:34;10.40;99.90
49717;DHT22;35609;53.166;7.610;2023-02-18T14:50:04;10.30;99.90
49717;DHT22;35609;53.166;7.610;2023-02-18T14:52:56;10.10;99.90
49717;DHT22;35609;53.166;7.610;2023-02-18T14:55:34;10.20;99.90
49717;DHT22;35609;53.166;7.610;2023-02-18T14:58:09;10.30;99.90
49717;DHT22;35609;53.166;7.610;2023-02-18T15:00:41;10.00;99.90
49717;DHT22;35609;53.166;7.610;2023-02-18T15:03:13;9.80;99.90
49717;DHT22;35609;53.166;7.610;2023-02-18T15:05:39;9.80;99.90
49717;DHT22;35609;53.166;7.610;2023-02-18T15:08:13;9.70;99.90
49717;DHT22;35609;53.166;7.610;2023-02-18T15:13:22;9.70;99.90
49717;DHT22;35609;53.166;7.610;2023-02-18T15:15:53;9.70;99.90
49717;DHT22;35609;53.166;7.610;2023-02-18T15:18:41;9.50;99.90
49717;DHT22;35609;53.166;7.610;2023-02-18T15:21:29;9.50;99.90
49717;DHT22;35609;53.166;7.610;2023-02-18T15:24:47;9.40;99.90
49717;DHT22;35609;53.166;7.610;2023-02-18T15:26:56;9.20;99.90
49717;DHT22;35609;53.166;7.610;2023-02-18T15:29:34;9.30;99.90
49717;DHT22;35609;53.166;7.610;2023-02-18T15:32:00;9.20;99.90
49717;DHT22;35609;53.166;7.610;2023-02-18T15:36:56;9.20;99.90
49717;DHT22;35609;53.166;7.610;2023-02-18T15:39:30;9.20;99.90
49717;DHT22;35609;53.166;7.610;2023-02-18T15:44:37;9.30;99.90
49717;DHT22;35609;53.166;7.610;2023-02-18T15:47:06;9.30;99.90
49717;DHT22;35609;53.166;7.610;2023-02-18T15:49:33;9.30;99.90
49717;DHT22;35609;53.166;7.610;2023-02-18T15:52:02;9.20;99.90
49717;DHT22;35609;53.166;7.610;2023-02-18T15:54:29;9.10;99.90
49717;DHT22;35609;53.166;7.610;2023-02-18T15:56:59;8.90;99.90
49717;DHT22;35609;53.166;7.610;2023-02-18T15:59:32;8.90;99.90
49717;DHT22;35609;53.166;7.610;2023-02-18T16:02:28;8.90;99.90
49717;DHT22;35609;53.166;7.610;2023-02-18T16:05:01;9.00;99.90
49717;DHT22;35609;53.166;7.610;2023-02-18T16:07:36;9.10;99.90
49717;DHT22;35609;53.166;7.610;2023-02-18T16:12:36;8.90;99.90
49717;DHT22;35609;53.166;7.610;2023-02-18T16:15:03;9.00;99.90
49717;DHT22;35609;53.166;7.610;2023-02-18T16:17:30;8.90;99.90
49717;DHT22;35609;53.166;7.610;2023-02-18T16:22:45;8.90;99.90
49717;DHT22;35609;53.166;7.610;2023-02-18T16:28:03;8.90;99.90
49717;DHT22;35609;53.166;7.610;2023-02-18T16:30:31;8.80;99.90
49717;DHT22;35609;53.166;7.610;2023-02-18T16:32:57;8.70;99.90
49717;DHT22;35609;53.166;7.610;2023-02-18T16:35:26;8.70;99.90
49717;DHT22;35609;53.166;7.610;2023-02-18T16:37:53;8.60;99.90
49717;DHT22;35609;53.166;7.610;2023-02-18T16:40:31;8.70;99.90
49717;DHT22;35609;53.166;7.610;2023-02-18T16:42:59;8.60;99.90
49717;DHT22;35609;53.166;7.610;2023-02-18T16:45:36;8.40;99.90
49717;DHT22;35609;53.166;7.610;2023-02-18T16:48:04;8.30;99.90
49717;DHT22;35609;53.166;7.610;2023-02-18T16:50:31;8.40;99.90
49717;DHT22;35609;53.166;7.610;2023-02-18T16:52:57;8.20;99.90
49717;DHT22;35609;53.166;7.610;2023-02-18T16:55:26;8.20;99.90
49717;DHT22;35609;53.166;7.610;2023-02-18T16:57:52;8.20;99.90
49717;DHT22;35609;53.166;7.610;2023-02-18T17:00:18;8.10;99.90
49717;DHT22;35609;53.166;7.610;2023-02-18T17:02:49;8.00;99.90
49717;DHT22;35609;53.166;7.610;2023-02-18T17:05:30;8.20;99.90
49717;DHT22;35609;53.166;7.610;2023-02-18T17:08:15;8.10;99.90
49717;DHT22;35609;53.166;7.610;2023-02-18T17:10:43;8.20;99.90
49717;DHT22;35609;53.166;7.610;2023-02-18T17:13:16;8.00;99.90
49717;DHT22;35609;53.166;7.610;2023-02-18T17:15:42;8.10;99.90
49717;DHT22;35609;53.166;7.610;2023-02-18T17:18:09;8.10;99.90
49717;DHT22;35609;53.166;7.610;2023-02-18T17:20:35;8.10;99.90
49717;DHT22;35609;53.166;7.610;2023-02-18T17:23:00;8.10;99.90
49717;DHT22;35609;53.166;7.610;2023-02-18T17:25:44;7.90;99.90
49717;DHT22;35609;53.166;7.610;2023-02-18T17:28:10;7.90;99.90
49717;DHT22;35609;53.166;7.610;2023-02-18T17:30:38;7.90;99.90
49717;DHT22;35609;53.166;7.610;2023-02-18T17:33:05;7.90;99.90
49717;DHT22;35609;53.166;7.610;2023-02-18T17:35:31;7.80;99.90
49717;DHT22;35609;53.166;7.610;2023-02-18T17:37:57;7.60;99.90
49717;DHT22;35609;53.166;7.610;2023-02-18T17:40:24;7.60;99.90
49717;DHT22;35609;53.166;7.610;2023-02-18T17:42:52;7.80;99.90
49717;DHT22;35609;53.166;7.610;2023-02-18T17:45:33;7.80;99.90
49717;DHT22;35609;53.166;7.610;2023-02-18T17:48:00;7.60;99.90
49717;DHT22;35609;53.166;7.610;2023-02-18T17:50:27;7.60;99.90
49717;DHT22;35609;53.166;7.610;2023-02-18T17:52:53;7.60;99.90
49717;DHT22;35609;53.166;7.610;2023-02-18T17:55:30;7.60;99.90
49717;DHT22;35609;53.166;7.610;2023-02-18T17:57:57;7.70;99.90
49717;DHT22;35609;53.166;7.610;2023-02-18T18:00:29;7.70;99.90
49717;DHT22;35609;53.166;7.610;2023-02-18T18:02:54;7.70;99.90
49717;DHT22;35609;53.166;7.610;2023-02-18T18:05:28;7.80;99.90
49717;DHT22;35609;53.166;7.610;2023-02-18T18:07:54;7.70;99.90
49717;DHT22;35609;53.166;7.610;2023-02-18T18:10:22;7.50;99.90
49717;DHT22;35609;53.166;7.610;2023-02-18T18:12:50;7.70;99.90
49717;DHT22;35609;53.166;7.610;2023-02-18T18:15:29;7.60;99.90
49717;DHT22;35609;53.166;7.610;2023-02-18T18:17:56;7.40;99.90
49717;DHT22;35609;53.166;7.610;2023-02-18T18:20:23;7.50;99.90
49717;DHT22;35609;53.166;7.610;2023-02-18T18:22:50;7.50;99.90
49717;DHT22;35609;53.166;7.610;2023-02-18T18:25:24;7.50;99.90
49717;DHT22;35609;53.166;7.610;2023-02-18T18:27:50;7.50;99.90
49717;DHT22;35609;53.166;7.610;2023-02-18T18:30:28;7.40;99.90
49717;DHT22;35609;53.166;7.610;2023-02-18T18:32:54;7.30;99.90